x

West Sea Otter (46204) Wave Buoy

8:00am - Thu 29th Jan 2015 All times are PST. -8 hours from GMT.

  • Sig Wave height 8.2ft
  • Peak Period 10s
  • Wind
    16mph, 20mph gusts
  • Sea Temp 50°f
  • Air Temp 48°f
  • Sea Pressure 1026.2mb
  • West Sea Otter
  • West Sea Otter

More Historic Weather Station data

Upgrade to MSW Pro to gain access to the past 30 days of data for over 8000 Wavebouys and Weather Stations around the globe.

Join Pro

Comparision Forecast

View Surf forecast
   
Thu 01/29 8:00am 8ft 10s 16 20 mph 1026.2mb 50f 48f
7:00am 7.5ft 10s 13 18 mph 1026.2mb 49f 48f
6:00am 8.5ft 10s 18 20 mph 1025.9mb 49f 47f
5:00am 8.5ft 10s 18 22 mph 1026.2mb 49f 48f
4:00am 9ft 10s 18 22 mph 1026.3mb 49f 48f
3:00am 8ft 10s 20 25 mph 1026.6mb 49f 48f
2:00am 8ft 11s 22 25 mph 1026.5mb 49f 48f
1:00am 8ft 10s 18 22 mph 1026.9mb 49f 48f
12:00am 7.5ft 9s 20 25 mph 1026.8mb 49f 48f
Wed 01/28 11:00pm 7.5ft 10s 18 22 mph 1027.1mb 49f 48f
10:00pm 7.5ft 9s 20 27 mph 1026.8mb 49f 47f
9:00pm 7ft 8s 20 22 mph 1026.5mb 50f 48f
8:00pm 7ft 10s 20 22 mph 1026.4mb 50f 49f
7:00pm 6.5ft 8s 20 22 mph 1026.4mb 50f 49f
6:00pm 6ft 9s 20 25 mph 1026.4mb 49f 49f
5:00pm 5.5ft 5s 22 27 mph 1026.3mb 49f 48f
4:00pm 5ft 10s 20 25 mph 1026.5mb 49f 48f
3:00pm 5ft 4s 20 25 mph 1026.5mb 49f 48f
2:00pm 4.5ft 12s 18 22 mph 1026.7mb 49f 47f
1:00pm 4.5ft 4s 18 20 mph 1027mb 49f 47f
12:00pm 4.5ft 12s 20 25 mph 1027.2mb 49f 47f
11:00am 4.5ft 20s 20 22 mph 1027.2mb 49f 47f
10:00am 4.5ft 11s 18 22 mph 1027mb 49f 46f
9:00am 4.5ft 13s 20 25 mph 1026.6mb 50f 46f
8:00am 4ft 12s 20 22 mph 1026.3mb 50f 46f
7:00am 4ft 12s 18 20 mph 1026.3mb 50f 46f
6:00am 4.5ft 12s 16 18 mph 1026.3mb 49f 46f
5:00am 4.5ft 12s 16 18 mph 1026mb 49f 46f
4:00am 4.5ft 10s 13 16 mph 1025.8mb 49f 46f
3:00am 4.5ft 10s 13 16 mph 1025.5mb 49f 47f
2:00am 5ft 12s 11 13 mph 1025.3mb 49f 47f
1:00am 5ft 12s 11 16 mph 1024.9mb 49f 47f
12:00am 5ft 12s 9 13 mph 1024.9mb 49f 47f
Tue 01/27 11:00pm 5ft 12s 7 9 mph 1024.5mb 49f 47f
10:00pm 5.5ft 13s 4 7 mph 1024.2mb 49f 47f
9:00pm 5.5ft 10s 4 7 mph 1024.1mb 49f 47f
8:00pm 6ft 11s 4 7 mph 1023.5mb 49f 47f
7:00pm 6ft 13s 4
mph
1022.9mb 49f 47f
6:00pm 6ft 11s 4 7 mph 1022.3mb 49f 47f
5:00pm 6.5ft 14s 4 7 mph 1022mb 49f 47f
4:00pm 6.5ft 12s 9 11 mph 1021.8mb 49f 47f
3:00pm 7ft 13s 7 9 mph 1021.3mb 49f 47f
2:00pm 7ft 7s 11 13 mph 1021mb 49f 47f
1:00pm 8ft 8s 13 16 mph 1020.4mb 49f 48f
12:00pm 8ft 7s 9 13 mph 1020mb 49f 47f
11:00am 8ft 9s 9 13 mph 1019.5mb 50f 47f
10:00am 8.5ft 8s 11 16 mph 1018.7mb 50f 47f
9:00am 9ft 9s 11 16 mph 1017.5mb 50f 47f
8:00am 9.5ft 9s 16 25 mph 1016.4mb 50f 47f
7:00am 10ft 8s 20 25 mph 1015.5mb 50f 47f
6:00am 9.5ft 7s 20 25 mph 1014.8mb 51f 48f
5:00am 9.5ft 7s 25 29 mph 1013.7mb 50f 48f
4:00am 9ft 8s 20 25 mph 1013.2mb 50f 49f
3:00am 8ft 7s 22 27 mph 1012.2mb 50f 48f
2:00am 8ft 8s 22 27 mph 1011mb 51f 48f
1:00am 8.5ft 11s 25 31 mph 1009.4mb 51f 48f
12:00am 9ft 7s 22 27 mph 1008.1mb 50f 48f
Mon 01/26 11:00pm 9ft 8s 22 29 mph 1006.8mb 51f 48f
10:00pm 10.5ft 7s 22 29 mph 1005.5mb 51f 50f
9:00pm 11ft 7s 36 43 mph 1004.3mb 50f 51f
8:00pm 11ft 8s 34 45 mph 1003.9mb 50f 51f
7:00pm 12ft 7s 36 43 mph 1003.5mb 50f 51f
6:00pm 11.5ft 7s 36 45 mph 1003.5mb 50f 51f
5:00pm 11ft 8s 34 40 mph 1003.3mb 50f 51f
4:00pm 10.5ft 6s 31 40 mph 1003.7mb 50f 52f
3:00pm 11ft 7s 31 38 mph 1003.8mb 50f 52f
2:00pm 10.5ft 7s 31 38 mph 1004mb 51f 52f
1:00pm 9ft 13s 34 45 mph 1004.5mb 51f 52f
12:00pm 8ft 11s 27 34 mph 1005.2mb 51f 52f
11:00am 7.5ft 12s 16 20 mph 1006mb 50f 53f
10:00am 8ft 11s 9 13 mph 1005.8mb 50f 52f
9:00am 7.5ft 14s 13 16 mph 1006.3mb 50f 51f
8:00am 7.5ft 12s 16 20 mph 1006.5mb 50f 51f
7:00am 8ft 11s 20 25 mph 1006.6mb 50f 51f
6:00am 8ft 10s 22 29 mph 1006.9mb 50f 51f
5:00am 9ft 12s 18 22 mph 1008.4mb 50f 51f
4:00am 9ft 10s 22 29 mph 1008.9mb 50f 51f
3:00am 9ft 11s 22 25 mph 1009.9mb 50f 51f
2:00am 10ft 10s 18 22 mph 1010.5mb 50f 50f
1:00am 10.5ft 11s 22 27 mph 1010.7mb 50f 51f
12:00am 11ft 11s 20 25 mph 1011.4mb 50f 51f
Sun 01/25 11:00pm 11.5ft 11s 22 27 mph 1011.5mb 50f 50f
10:00pm 12.5ft 12s 25 31 mph 1012.1mb 50f 51f
9:00pm 12.5ft 10s 22 29 mph 1012.3mb 49f 51f
8:00pm 12.5ft 11s 29 36 mph 1011.6mb 49f 51f
7:00pm 12ft 11s 27 36 mph 1011.9mb 49f 51f
6:00pm 12ft 12s 27 31 mph 1012.6mb 49f 50f